Time;durP1;ratioP1;P1;durP2;ratioP2;P2;SDS_P1;SDS_P2;PMS_P1;PMS_P2;Temp;Humidity;BMP_temperature;BMP_pressure;BME280_temperature;BME280_humidity;BME280_pressure;Samples;Min_cycle;Max_cycle;Signal;HPM_P1;HPM_P2
2021/04/05 00:00:41;;;;;;;9.05;5.22;;;5.50;79.20;;;;;;1795244;80;21282;-71
2021/04/05 00:03:10;;;;;;;12.43;5.97;;;5.50;79.40;;;;;;1795472;80;21123;-70
2021/04/05 00:05:38;;;;;;;11.08;5.55;;;5.40;79.80;;;;;;1795219;80;21294;-70
2021/04/05 00:08:07;;;;;;;10.03;5.60;;;5.50;79.10;;;;;;1795425;80;21294;-70
2021/04/05 00:10:44;;;;;;;10.45;5.60;;;5.50;78.50;;;;;;1795515;80;21155;-70
2021/04/05 00:13:21;;;;;;;10.28;4.95;;;5.40;77.90;;;;;;1795743;80;21129;-70
2021/04/05 00:15:48;;;;;;;10.30;5.20;;;5.30;77.90;;;;;;1757059;82;21124;-70
2021/04/05 00:18:17;;;;;;;10.35;5.58;;;5.20;78.50;;;;;;1728038;83;21167;-70
2021/04/05 00:20:56;;;;;;;8.83;4.92;;;5.10;77.80;;;;;;1728017;83;21159;-70
2021/04/05 00:23:25;;;;;;;10.40;5.60;;;5.00;76.80;;;;;;1727280;83;21202;-70
2021/04/05 00:25:52;;;;;;;8.85;4.97;;;5.00;78.10;;;;;;1727901;83;21179;-70
2021/04/05 00:28:20;;;;;;;7.72;4.80;;;5.00;79.70;;;;;;1758163;82;21190;-70
2021/04/05 00:30:49;;;;;;;10.23;5.22;;;5.00;80.40;;;;;;1757913;81;21194;-70
2021/04/05 00:33:16;;;;;;;8.03;4.55;;;5.10;79.10;;;;;;1758212;81;21124;-70
2021/04/05 00:35:44;;;;;;;8.33;5.00;;;5.10;77.70;;;;;;1757905;82;21154;-70
2021/04/05 00:38:14;;;;;;;10.32;5.28;;;5.20;76.40;;;;;;1757925;82;21154;-71
2021/04/05 00:41:02;;;;;;;9.63;5.12;;;5.20;75.00;;;;;;1758101;81;21569;-71
2021/04/05 00:43:31;;;;;;;9.10;5.20;;;5.20;78.00;;;;;;1757681;82;21601;-71
2021/04/05 00:45:59;;;;;;;9.68;5.10;;;5.20;78.00;;;;;;1758048;82;21166;-71
2021/04/05 00:48:27;;;;;;;9.40;4.83;;;5.10;76.80;;;;;;1759412;80;21647;-71
2021/04/05 00:51:00;;;;;;;10.28;5.45;;;5.10;77.60;;;;;;1765802;81;21123;-71
2021/04/05 00:53:36;;;;;;;11.35;5.25;;;5.20;78.60;;;;;;1765707;81;21183;-71
2021/04/05 00:56:05;;;;;;;9.60;5.33;;;5.20;79.50;;;;;;1765915;81;21542;-71
2021/04/05 00:58:34;;;;;;;7.87;4.75;;;5.30;76.90;;;;;;1765785;81;21585;-71
2021/04/05 01:01:07;;;;;;;9.65;5.35;;;5.30;76.30;;;;;;1765774;81;21146;-71
2021/04/05 01:03:39;;;;;;;9.13;5.22;;;5.30;76.40;;;;;;1765733;81;21107;-71
2021/04/05 01:06:30;;;;;;;9.63;4.97;;;5.40;77.70;;;;;;1765684;81;21131;-71
2021/04/05 01:08:59;;;;;;;9.05;4.62;;;5.40;78.30;;;;;;1765904;81;21138;-71
2021/04/05 01:11:30;;;;;;;9.00;5.30;;;5.40;77.60;;;;;;1765713;81;21158;-71
2021/04/05 01:13:58;;;;;;;9.78;5.00;;;5.40;77.80;;;;;;1765712;81;21104;-71
2021/04/05 01:16:30;;;;;;;8.38;5.15;;;5.40;78.30;;;;;;1765881;81;21577;-71
2021/04/05 01:18:59;;;;;;;8.15;4.70;;;5.40;77.80;;;;;;1765772;81;21138;-71
2021/04/05 01:21:29;;;;;;;9.43;4.78;;;5.30;77.30;;;;;;1766144;81;21332;-71
2021/04/05 01:23:56;;;;;;;11.68;4.95;;;5.30;76.90;;;;;;1765882;81;21573;-71
2021/04/05 01:26:24;;;;;;;9.58;4.65;;;5.20;77.80;;;;;;1765838;81;21166;-71
2021/04/05 01:28:53;;;;;;;9.53;4.50;;;5.20;77.10;;;;;;1765849;81;21550;-71
2021/04/05 01:31:21;;;;;;;11.22;4.67;;;5.10;77.10;;;;;;1765859;81;21158;-71
2021/04/05 01:33:51;;;;;;;8.08;4.53;;;5.10;76.70;;;;;;1765970;81;21186;-71
2021/04/05 01:36:19;;;;;;;7.75;4.53;;;5.00;77.00;;;;;;1765774;81;21179;-71
2021/04/05 01:38:51;;;;;;;8.23;4.53;;;4.90;76.60;;;;;;1765869;81;21142;-71
2021/04/05 01:41:31;;;;;;;8.50;4.58;;;4.90;77.00;;;;;;1765868;81;21162;-71
2021/04/05 01:44:00;;;;;;;9.20;4.33;;;4.90;77.30;;;;;;1765759;81;21145;-72
2021/04/05 01:46:30;;;;;;;9.00;4.58;;;4.70;77.70;;;;;;1765755;81;21159;-72
2021/04/05 01:49:02;;;;;;;8.10;3.83;;;4.80;77.80;;;;;;1765746;80;21589;-71
2021/04/05 01:51:30;;;;;;;8.55;4.22;;;4.70;78.00;;;;;;1765776;81;21155;-72
2021/04/05 01:53:57;;;;;;;8.08;4.50;;;4.70;78.40;;;;;;1765733;81;21159;-71
2021/04/05 01:56:25;;;;;;;9.03;4.40;;;4.70;77.70;;;;;;1765834;81;21162;-72
2021/04/05 01:58:55;;;;;;;7.95;4.50;;;4.70;77.40;;;;;;1765739;81;21173;-72
2021/04/05 02:01:27;;;;;;;9.45;4.72;;;4.70;76.80;;;;;;1765640;81;21186;-72
2021/04/05 02:03:57;;;;;;;8.90;4.45;;;4.60;77.50;;;;;;1765768;81;21163;-71
2021/04/05 02:06:33;;;;;;;7.67;4.47;;;4.50;77.30;;;;;;1765683;81;21139;-71
2021/04/05 02:09:04;;;;;;;8.80;4.62;;;4.40;78.10;;;;;;1765812;81;21186;-71
2021/04/05 02:11:36;;;;;;;10.48;5.42;;;4.50;78.50;;;;;;1765235;81;21135;-71
2021/04/05 02:14:07;;;;;;;10.55;5.05;;;4.50;78.60;;;;;;1765759;81;21135;-71
2021/04/05 02:16:37;;;;;;;14.68;5.72;;;4.60;78.30;;;;;;1765656;81;21135;-72
2021/04/05 02:19:05;;;;;;;10.08;5.17;;;4.50;78.00;;;;;;1765842;81;21150;-71
2021/04/05 02:21:33;;;;;;;10.85;5.45;;;4.50;78.40;;;;;;1765702;81;21162;-72
2021/04/05 02:24:04;;;;;;;9.28;5.15;;;4.50;78.30;;;;;;1765705;81;21624;-72
2021/04/05 02:26:36;;;;;;;9.25;4.75;;;4.40;78.40;;;;;;1765739;81;21596;-72
2021/04/05 02:29:06;;;;;;;11.33;5.45;;;4.50;78.70;;;;;;1766008;81;21283;-71
2021/04/05 02:31:36;;;;;;;8.53;4.78;;;4.60;78.40;;;;;;1765656;81;21151;-71
2021/04/05 02:34:10;;;;;;;10.85;5.67;;;4.60;78.40;;;;;;1766031;81;21156;-71
2021/04/05 02:36:39;;;;;;;11.18;5.70;;;4.60;78.20;;;;;;1766031;81;21297;-72
2021/04/05 02:39:11;;;;;;;10.00;5.17;;;4.50;78.30;;;;;;1765626;81;21162;-72
2021/04/05 02:41:45;;;;;;;9.00;5.12;;;4.50;78.60;;;;;;1765754;81;21142;-71
2021/04/05 02:44:14;;;;;;;11.20;5.10;;;4.60;79.40;;;;;;1765702;81;21131;-72
2021/04/05 02:46:46;;;;;;;10.32;5.25;;;4.60;78.80;;;;;;1765611;81;21151;-72
2021/04/05 02:49:18;;;;;;;8.90;5.20;;;4.70;78.40;;;;;;1765765;80;21166;-72
2021/04/05 02:51:49;;;;;;;10.48;5.15;;;4.80;77.60;;;;;;1765637;81;21138;-72
2021/04/05 02:54:20;;;;;;;8.85;5.10;;;4.90;76.70;;;;;;1765898;81;21130;-72
2021/04/05 02:56:48;;;;;;;9.28;4.83;;;4.70;76.00;;;;;;1766248;81;21166;-72
2021/04/05 02:59:21;;;;;;;9.15;4.75;;;4.80;76.60;;;;;;1765622;81;21171;-72
2021/04/05 03:01:50;;;;;;;8.63;4.80;;;4.70;75.60;;;;;;1765984;81;21136;-71
2021/04/05 03:04:19;;;;;;;8.33;4.90;;;4.80;76.10;;;;;;1765659;81;21610;-71
2021/04/05 03:06:50;;;;;;;10.58;5.03;;;4.80;76.20;;;;;;1765668;81;21592;-71
2021/04/05 03:09:18;;;;;;;8.10;4.92;;;4.90;75.90;;;;;;1765629;81;21147;-71
2021/04/05 03:11:50;;;;;;;10.10;5.30;;;5.00;76.00;;;;;;1765591;81;21158;-71
2021/04/05 03:14:17;;;;;;;9.38;4.85;;;5.00;76.70;;;;;;1766306;81;21285;-71
2021/04/05 03:16:48;;;;;;;8.78;5.08;;;4.90;76.10;;;;;;1765804;81;21167;-71
2021/04/05 03:19:17;;;;;;;9.60;4.92;;;5.00;76.60;;;;;;1765897;81;21150;-72
2021/04/05 03:21:46;;;;;;;9.70;4.90;;;5.10;75.60;;;;;;1765587;81;21613;-71
2021/04/05 03:24:14;;;;;;;10.48;5.22;;;5.00;75.90;;;;;;1765747;81;21186;-71
2021/04/05 03:26:42;;;;;;;8.93;4.92;;;5.10;75.90;;;;;;1765817;81;21127;-71
2021/04/05 03:29:14;;;;;;;8.85;5.10;;;5.00;76.10;;;;;;1765578;81;21155;-71
2021/04/05 03:31:45;;;;;;;8.93;5.42;;;5.10;75.90;;;;;;1765653;81;21155;-71
2021/04/05 03:34:18;;;;;;;8.00;5.00;;;5.10;75.80;;;;;;1765900;81;21150;-70
2021/04/05 03:36:57;;;;;;;8.60;4.83;;;5.10;76.40;;;;;;1765669;81;21163;-70
2021/04/05 03:39:25;;;;;;;9.55;4.95;;;5.10;76.40;;;;;;1764006;81;21131;-71
2021/04/05 03:42:13;;;;;;;10.70;4.80;;;5.20;75.70;;;;;;1765745;81;21166;-71
2021/04/05 03:44:58;;;;;;;10.03;4.83;;;5.10;76.20;;;;;;1765578;81;21135;-71
2021/04/05 03:47:53;;;;;;;11.38;5.12;;;5.20;75.60;;;;;;1765625;81;21147;-71
2021/04/05 03:50:41;;;;;;;8.65;4.60;;;5.20;76.20;;;;;;1764074;80;21175;-71
2021/04/05 03:53:27;;;;;;;11.73;4.80;;;5.10;76.10;;;;;;1765613;81;21143;-71
2021/04/05 03:56:05;;;;;;;9.08;4.65;;;5.20;76.10;;;;;;1764840;81;21127;-71
2021/04/05 03:58:34;;;;;;;13.18;4.78;;;5.20;75.20;;;;;;1765011;81;21601;-71
2021/04/05 04:01:10;;;;;;;8.08;4.42;;;5.20;75.20;;;;;;1765866;81;21625;-72
2021/04/05 04:03:49;;;;;;;9.53;4.80;;;5.20;75.20;;;;;;1765978;81;21558;-71
2021/04/05 04:06:16;;;;;;;10.20;5.03;;;5.20;74.70;;;;;;1765095;81;21620;-71
2021/04/05 04:08:47;;;;;;;10.78;5.20;;;5.10;75.40;;;;;;1765848;81;21163;-72
2021/04/05 04:11:22;;;;;;;11.65;5.40;;;5.10;76.60;;;;;;1765801;81;21581;-71
2021/04/05 04:13:47;;;;;;;15.88;5.20;;;5.10;76.20;;;;;;1765399;81;21593;-72
2021/04/05 04:16:17;;;;;;;12.88;5.10;;;5.00;77.40;;;;;;1765743;81;21162;-72
2021/04/05 04:18:45;;;;;;;10.85;5.70;;;4.90;77.00;;;;;;1765991;81;21289;-71
2021/04/05 04:21:15;;;;;;;10.55;5.37;;;5.00;78.10;;;;;;1765722;81;21135;-72
2021/04/05 04:23:45;;;;;;;9.45;5.35;;;5.00;77.70;;;;;;1765800;81;21170;-71
2021/04/05 04:26:13;;;;;;;8.63;4.70;;;5.00;78.20;;;;;;1765741;81;21137;-71
2021/04/05 04:28:45;;;;;;;7.70;4.65;;;5.00;77.50;;;;;;1765748;81;21438;-71
2021/04/05 04:31:13;;;;;;;10.50;4.83;;;5.00;75.40;;;;;;1765767;81;21166;-71
2021/04/05 04:33:41;;;;;;;9.30;4.62;;;5.00;74.90;;;;;;1765736;81;21162;-72
2021/04/05 04:36:09;;;;;;;9.10;4.97;;;5.00;76.10;;;;;;1765722;81;21159;-72
2021/04/05 04:38:38;;;;;;;9.95;5.10;;;4.90;75.90;;;;;;1765733;81;21166;-71
2021/04/05 04:41:06;;;;;;;8.90;4.65;;;5.00;75.60;;;;;;1765896;81;21154;-72
2021/04/05 04:43:34;;;;;;;8.93;4.53;;;5.00;75.60;;;;;;1765703;81;21131;-72
2021/04/05 04:46:02;;;;;;;7.92;4.20;;;4.90;74.70;;;;;;1765687;81;21199;-72
2021/04/05 04:48:29;;;;;;;10.23;4.65;;;4.90;74.30;;;;;;1765884;81;21131;-71
2021/04/05 04:50:57;;;;;;;9.08;4.83;;;5.00;75.20;;;;;;1777154;80;21613;-72
2021/04/05 04:53:24;;;;;;;10.65;5.45;;;5.10;74.70;;;;;;1819133;79;21134;-71
2021/04/05 04:55:52;;;;;;;10.85;5.50;;;5.10;73.90;;;;;;1819161;78;21138;-71
2021/04/05 04:58:20;;;;;;;18.70;6.58;;;5.00;73.70;;;;;;1819441;79;21111;-72
2021/04/05 05:00:48;;;;;;;10.05;5.50;;;5.10;74.00;;;;;;1819450;79;21108;-71
2021/04/05 05:03:19;;;;;;;10.00;4.75;;;5.10;73.90;;;;;;1819353;79;21557;-71
2021/04/05 05:05:51;;;;;;;8.30;4.97;;;5.10;73.60;;;;;;1819400;79;21158;-72
2021/04/05 05:08:20;;;;;;;9.88;4.75;;;5.20;73.40;;;;;;1819297;79;21118;-71
2021/04/05 05:10:49;;;;;;;7.50;4.08;;;5.20;73.10;;;;;;1819379;79;21167;-72
2021/04/05 05:13:16;;;;;;;11.88;4.47;;;5.20;72.90;;;;;;1819130;79;21139;-72
2021/04/05 05:15:45;;;;;;;7.40;4.20;;;5.10;72.20;;;;;;1819145;79;21131;-72
2021/04/05 05:18:13;;;;;;;8.10;4.37;;;5.20;72.70;;;;;;1819233;78;21170;-71
2021/04/05 05:20:41;;;;;;;8.80;4.92;;;5.30;73.10;;;;;;1819164;79;21186;-72
2021/04/05 05:23:11;;;;;;;9.13;4.92;;;5.20;72.70;;;;;;1819382;79;21147;-72
2021/04/05 05:25:42;;;;;;;10.50;4.28;;;5.20;72.60;;;;;;1819529;78;21285;-72
2021/04/05 05:28:11;;;;;;;7.45;4.08;;;5.30;72.50;;;;;;1819182;79;21096;-72
2021/04/05 05:30:41;;;;;;;10.45;4.62;;;5.40;72.10;;;;;;1819151;78;21111;-72
2021/04/05 05:33:09;;;;;;;9.30;4.75;;;5.60;71.50;;;;;;1819338;79;21130;-71
2021/04/05 05:35:38;;;;;;;8.65;4.67;;;5.60;71.20;;;;;;1819226;79;21142;-72
2021/04/05 05:38:06;;;;;;;13.00;4.33;;;5.60;70.50;;;;;;1819227;79;21511;-71
2021/04/05 05:40:36;;;;;;;9.45;4.30;;;5.60;70.60;;;;;;1819291;79;21561;-71
2021/04/05 05:43:18;;;;;;;9.58;4.53;;;5.70;70.50;;;;;;1819141;78;21159;-72
2021/04/05 05:46:14;;;;;;;8.78;4.70;;;5.80;71.10;;;;;;1819115;79;21163;-72
2021/04/05 05:49:21;;;;;;;9.55;5.25;;;5.90;70.80;;;;;;1819271;79;21143;-72
2021/04/05 05:51:57;;;;;;;13.38;6.20;;;6.00;70.90;;;;;;1819814;79;21273;-72
2021/04/05 05:55:17;;;;;;;11.70;5.83;;;6.00;71.20;;;;;;1819520;79;21126;-72
2021/04/05 05:58:14;;;;;;;11.57;5.25;;;6.00;70.70;;;;;;1819145;78;21131;-72
2021/04/05 06:00:52;;;;;;;11.68;5.45;;;6.10;69.50;;;;;;1819257;79;21175;-72
2021/04/05 06:03:43;;;;;;;9.50;5.17;;;6.10;70.30;;;;;;1781495;79;21135;-72
2021/04/05 06:06:22;;;;;;;11.68;6.40;;;6.20;70.00;;;;;;1773929;79;21155;-72
2021/04/05 06:09:31;;;;;;;11.43;6.47;;;6.30;69.30;;;;;;1818457;79;21209;-72
2021/04/05 06:12:25;;;;;;;13.75;6.05;;;6.30;68.70;;;;;;1819105;79;21193;-72
2021/04/05 06:15:27;;;;;;;11.85;5.67;;;6.40;69.20;;;;;;1817905;79;21612;-71
2021/04/05 06:18:23;;;;;;;10.85;5.10;;;6.40;68.80;;;;;;1819635;79;21100;-72
2021/04/05 06:21:24;;;;;;;9.70;5.47;;;6.40;67.20;;;;;;1812961;79;21147;-72
2021/04/05 06:23:56;;;;;;;9.55;5.33;;;6.50;67.60;;;;;;1819255;79;21116;-72
2021/04/05 06:26:52;;;;;;;9.13;5.05;;;6.60;67.30;;;;;;1819189;79;21593;-72
2021/04/05 06:29:37;;;;;;;12.58;5.40;;;6.60;66.50;;;;;;1819135;79;21128;-72
2021/04/05 06:32:27;;;;;;;9.95;4.67;;;6.70;65.40;;;;;;1769247;79;21151;-71
2021/04/05 06:35:31;;;;;;;9.15;4.95;;;6.70;65.20;;;;;;1818554;79;21226;-70
2021/04/05 06:38:04;;;;;;;10.00;4.75;;;6.80;65.10;;;;;;1797262;79;21103;-71
2021/04/05 06:40:37;;;;;;;7.67;4.83;;;6.90;65.40;;;;;;1819116;78;21147;-72
2021/04/05 06:43:35;;;;;;;9.60;5.12;;;7.00;62.70;;;;;;1819113;78;21187;-73
2021/04/05 06:46:43;;;;;;;9.40;4.92;;;6.90;62.90;;;;;;1819071;78;21160;-72
2021/04/05 06:49:29;;;;;;;9.35;4.85;;;7.10;64.30;;;;;;1819294;79;21621;-71
2021/04/05 06:52:26;;;;;;;8.90;5.20;;;7.30;64.40;;;;;;1818096;79;21142;-72
2021/04/05 06:55:27;;;;;;;7.72;4.58;;;7.40;61.70;;;;;;1817983;79;21142;-72
2021/04/05 06:58:14;;;;;;;10.93;5.58;;;7.40;61.00;;;;;;1817787;79;21147;-72
2021/04/05 07:00:56;;;;;;;10.68;6.58;;;7.60;61.60;;;;;;1819148;79;21601;-72
2021/04/05 07:04:01;;;;;;;8.90;5.00;;;7.70;62.20;;;;;;1819197;79;21127;-72
2021/04/05 07:06:43;;;;;;;10.30;5.70;;;7.80;59.90;;;;;;1787650;79;21546;-72
2021/04/05 07:09:43;;;;;;;10.45;5.78;;;7.70;60.30;;;;;;1819084;79;21128;-70
2021/04/05 07:12:46;;;;;;;14.38;6.33;;;7.90;61.50;;;;;;1763108;79;21124;-72
2021/04/05 07:15:42;;;;;;;10.18;5.40;;;8.10;60.50;;;;;;1819162;79;21143;-72
2021/04/05 07:18:56;;;;;;;10.08;5.60;;;8.20;59.90;;;;;;1819266;79;21545;-72
2021/04/05 07:21:48;;;;;;;10.10;4.37;;;8.30;59.50;;;;;;1819339;79;21136;-72
2021/04/05 07:24:37;;;;;;;6.17;3.70;;;8.50;58.90;;;;;;1819075;78;21111;-72
2021/04/05 07:27:22;;;;;;;7.37;3.70;;;8.60;56.40;;;;;;1819033;79;21127;-71
2021/04/05 07:29:58;;;;;;;6.42;3.52;;;8.80;55.30;;;;;;1818573;79;21127;-72
2021/04/05 07:33:24;;;;;;;7.12;3.27;;;8.80;52.40;;;;;;1817443;79;21692;-72
2021/04/05 07:36:06;;;;;;;6.97;3.35;;;8.80;52.80;;;;;;1819241;79;21137;-72
2021/04/05 07:39:00;;;;;;;5.37;3.30;;;9.10;52.10;;;;;;1819154;78;21558;-72
2021/04/05 07:41:36;;;;;;;6.17;3.33;;;9.20;50.90;;;;;;1819258;79;21131;-72
2021/04/05 07:44:42;;;;;;;6.45;3.45;;;9.30;50.50;;;;;;1819370;79;21096;-72
2021/04/05 07:47:39;;;;;;;9.30;3.80;;;9.40;51.70;;;;;;1818606;79;21068;-72
2021/04/05 07:50:30;;;;;;;12.43;4.00;;;9.60;49.30;;;;;;1818875;79;21419;-72
2021/04/05 07:53:06;;;;;;;8.30;3.70;;;9.60;49.40;;;;;;1816174;79;21151;-72
2021/04/05 07:55:35;;;;;;;7.10;3.83;;;9.80;49.10;;;;;;1819177;79;21124;-72
2021/04/05 07:58:19;;;;;;;7.90;3.77;;;10.10;48.20;;;;;;1819340;79;21151;-71
2021/04/05 08:01:11;;;;;;;5.70;3.80;;;10.30;47.60;;;;;;1818930;79;21581;-74
2021/04/05 08:04:06;;;;;;;10.00;4.50;;;10.60;47.20;;;;;;1818031;79;21127;-72
2021/04/05 08:07:06;;;;;;;6.10;3.50;;;11.20;46.10;;;;;;1819078;78;21546;-71
2021/04/05 08:09:48;;;;;;;6.60;3.80;;;11.60;43.50;;;;;;1766656;79;21155;-71
2021/04/05 08:12:34;;;;;;;5.87;3.85;;;12.30;42.90;;;;;;1819081;79;21273;-72
2021/04/05 08:15:19;;;;;;;6.15;3.92;;;13.00;40.50;;;;;;1818167;79;21146;-72
2021/04/05 08:18:04;;;;;;;6.92;4.05;;;13.50;38.20;;;;;;1818393;79;21545;-72
2021/04/05 08:20:46;;;;;;;9.63;5.03;;;14.10;39.10;;;;;;1817911;79;21660;-72
2021/04/05 08:23:57;;;;;;;5.87;3.52;;;14.90;37.50;;;;;;1818850;79;21138;-71
2021/04/05 08:26:37;;;;;;;6.60;3.90;;;15.30;34.10;;;;;;1818988;79;21175;-72
2021/04/05 08:29:35;;;;;;;4.42;2.70;;;15.90;32.50;;;;;;1818630;79;21163;-72
2021/04/05 08:32:17;;;;;;;8.20;4.12;;;16.40;31.60;;;;;;1818109;79;21241;-71
2021/04/05 08:35:12;;;;;;;5.95;3.67;;;16.00;31.40;;;;;;1819040;79;21100;-72
2021/04/05 08:38:33;;;;;;;6.67;3.58;;;16.00;31.70;;;;;;1723820;79;21180;-72
2021/04/05 08:41:33;;;;;;;5.30;3.27;;;15.80;32.50;;;;;;1818864;79;21159;-71
2021/04/05 08:44:21;;;;;;;7.22;3.40;;;15.30;33.70;;;;;;1818682;79;21111;-71
2021/04/05 08:46:52;;;;;;;6.22;3.15;;;14.90;34.30;;;;;;1818956;78;21163;-71
2021/04/05 08:49:24;;;;;;;5.35;3.22;;;14.10;34.10;;;;;;1819421;79;21143;-71
2021/04/05 08:52:04;;;;;;;5.65;3.08;;;13.70;36.00;;;;;;1819167;79;21604;-71
2021/04/05 08:54:37;;;;;;;4.65;2.77;;;13.40;37.30;;;;;;1819776;79;21134;-72
2021/04/05 08:57:19;;;;;;;6.20;2.80;;;13.20;38.00;;;;;;1819368;79;21112;-72
2021/04/05 09:00:09;;;;;;;3.85;2.50;;;13.20;37.20;;;;;;1819004;79;21155;-72
2021/04/05 09:03:00;;;;;;;4.70;2.70;;;13.20;37.90;;;;;;1819201;79;21126;-72
2021/04/05 09:05:30;;;;;;;4.78;2.90;;;12.90;38.40;;;;;;1819127;79;21151;-71
2021/04/05 09:08:06;;;;;;;6.47;3.15;;;12.70;38.90;;;;;;1819140;78;21127;-72
2021/04/05 09:11:01;;;;;;;5.60;2.87;;;12.50;39.10;;;;;;1819368;79;21127;-71
2021/04/05 09:13:35;;;;;;;6.87;3.20;;;12.20;38.80;;;;;;1819368;79;21155;-71
2021/04/05 09:16:55;;;;;;;3.98;2.42;;;12.10;38.70;;;;;;1819306;79;21159;-71
2021/04/05 09:19:37;;;;;;;4.30;2.77;;;12.00;39.20;;;;;;1818889;79;21170;-71
2021/04/05 09:22:45;;;;;;;4.50;2.52;;;11.70;39.20;;;;;;1818864;79;21135;-71
2021/04/05 09:25:46;;;;;;;5.05;2.62;;;11.60;39.60;;;;;;1819107;78;21146;-71
2021/04/05 09:28:28;;;;;;;4.60;2.62;;;11.50;40.00;;;;;;1819538;79;21257;-71
2021/04/05 09:31:25;;;;;;;4.50;2.65;;;11.40;41.50;;;;;;1819256;79;21150;-71
2021/04/05 09:34:34;;;;;;;4.87;2.62;;;11.40;41.10;;;;;;1819275;79;21140;-71
2021/04/05 09:37:08;;;;;;;6.05;2.83;;;11.60;42.20;;;;;;1819320;79;21592;-71
2021/04/05 09:40:07;;;;;;;5.30;2.80;;;11.70;40.10;;;;;;1819148;79;21119;-71
2021/04/05 09:42:52;;;;;;;6.72;2.70;;;11.70;39.40;;;;;;1819122;79;21116;-71
2021/04/05 09:45:46;;;;;;;5.40;2.50;;;11.70;38.40;;;;;;1819336;79;21561;-72
2021/04/05 09:48:48;;;;;;;6.22;3.12;;;11.90;39.60;;;;;;1818937;79;21143;-72
2021/04/05 09:51:45;;;;;;;4.33;2.72;;;12.10;40.10;;;;;;1819130;79;21593;-72
2021/04/05 09:54:18;;;;;;;4.65;2.45;;;12.10;38.70;;;;;;1819426;79;21139;-72
2021/04/05 09:56:54;;;;;;;7.10;2.40;;;12.20;38.30;;;;;;1819050;79;21601;-72
2021/04/05 09:59:30;;;;;;;6.08;2.62;;;12.20;37.30;;;;;;1819318;78;21585;-72
2021/04/05 10:01:59;;;;;;;3.87;2.40;;;12.30;39.50;;;;;;1794059;79;21599;-72
2021/04/05 10:04:30;;;;;;;5.47;2.90;;;12.50;38.30;;;;;;1819136;79;21139;-72
2021/04/05 10:06:59;;;;;;;4.28;2.55;;;12.70;37.80;;;;;;1819136;79;21142;-72
2021/04/05 10:09:32;;;;;;;4.45;2.50;;;12.80;38.80;;;;;;1819506;78;21655;-72
2021/04/05 10:12:07;;;;;;;4.62;2.70;;;12.80;36.10;;;;;;1819204;79;21116;-73
2021/04/05 10:14:43;;;;;;;4.12;2.50;;;12.70;35.90;;;;;;1819153;78;21557;-73
2021/04/05 10:17:15;;;;;;;4.30;2.40;;;12.80;36.50;;;;;;1819237;79;21123;-70
2021/04/05 10:19:44;;;;;;;4.22;2.52;;;12.90;36.00;;;;;;1818367;79;21175;-70
2021/04/05 10:22:15;;;;;;;4.50;2.45;;;13.00;35.30;;;;;;1819101;79;21756;-71
2021/04/05 10:24:51;;;;;;;3.75;2.17;;;13.00;35.40;;;;;;1819168;79;21107;-70
2021/04/05 10:27:23;;;;;;;5.30;2.55;;;13.10;36.80;;;;;;1819221;78;21139;-72
2021/04/05 10:29:55;;;;;;;4.28;2.47;;;13.00;36.20;;;;;;1819151;79;21132;-72
2021/04/05 10:32:26;;;;;;;5.05;2.50;;;12.80;36.00;;;;;;1819217;79;21580;-71
2021/04/05 10:34:57;;;;;;;4.87;2.72;;;12.70;36.30;;;;;;1819117;78;21127;-71
2021/04/05 10:37:32;;;;;;;11.63;3.45;;;12.70;37.50;;;;;;1819285;79;21091;-71
2021/04/05 10:40:02;;;;;;;5.10;2.80;;;12.70;37.70;;;;;;1819092;78;21103;-71
2021/04/05 10:42:55;;;;;;;5.70;2.60;;;12.60;37.30;;;;;;1819047;78;21166;-72
2021/04/05 10:45:30;;;;;;;3.90;2.30;;;12.50;38.00;;;;;;1819442;78;21139;-72
2021/04/05 10:48:06;;;;;;;5.62;2.80;;;12.40;36.50;;;;;;1819165;79;21541;-72
2021/04/05 10:50:42;;;;;;;4.97;2.52;;;12.50;37.50;;;;;;1819442;79;21167;-72
2021/04/05 10:53:15;;;;;;;6.17;2.75;;;12.50;37.90;;;;;;1819148;79;21150;-73
2021/04/05 10:56:01;;;;;;;4.25;2.55;;;12.50;37.60;;;;;;1819273;79;21545;-72
2021/04/05 10:58:54;;;;;;;4.83;2.20;;;12.50;37.00;;;;;;1819099;79;21557;-71
2021/04/05 11:01:24;;;;;;;6.15;2.67;;;12.50;36.30;;;;;;1818856;79;21183;-72
2021/04/05 11:03:55;;;;;;;3.70;2.30;;;12.50;36.00;;;;;;1819142;78;21574;-72
2021/04/05 11:06:24;;;;;;;5.33;2.52;;;12.60;36.90;;;;;;1819333;79;21163;-72
2021/04/05 11:08:54;;;;;;;4.58;2.92;;;12.60;37.70;;;;;;1819003;79;21151;-73
2021/04/05 11:11:29;;;;;;;7.42;2.40;;;12.50;36.30;;;;;;1819130;79;21139;-72
2021/04/05 11:14:04;;;;;;;4.47;2.80;;;12.60;36.10;;;;;;1819151;78;21116;-72
2021/04/05 11:16:34;;;;;;;11.60;2.98;;;12.40;36.00;;;;;;1815939;79;21469;-70
2021/04/05 11:19:08;;;;;;;4.28;2.40;;;12.20;37.00;;;;;;1818958;79;21179;-71
2021/04/05 11:21:49;;;;;;;5.72;2.30;;;12.20;37.80;;;;;;1818867;78;21542;-71
2021/04/05 11:24:14;;;;;;;6.12;2.37;;;12.20;37.70;;;;;;1818337;79;21171;-69
2021/04/05 11:26:46;;;;;;;9.10;2.70;;;12.10;37.20;;;;;;1816173;78;21171;-70
2021/04/05 11:29:17;;;;;;;7.83;2.67;;;12.10;37.40;;;;;;1790248;79;21117;-72
2021/04/05 11:31:46;;;;;;;3.90;2.55;;;12.20;37.40;;;;;;1781057;79;21082;-70
2021/04/05 11:34:27;;;;;;;7.17;2.45;;;12.20;37.00;;;;;;1810111;79;21162;-69
2021/04/05 11:37:00;;;;;;;4.75;2.58;;;12.30;37.70;;;;;;1812517;79;21686;-71
2021/04/05 11:39:34;;;;;;;7.17;2.50;;;12.20;37.50;;;;;;1812056;79;21122;-70
2021/04/05 11:42:06;;;;;;;6.58;2.25;;;12.20;37.20;;;;;;1816630;79;21572;-68
2021/04/05 11:44:51;;;;;;;3.90;2.17;;;12.30;37.20;;;;;;1816153;79;21140;-69
2021/04/05 11:47:21;;;;;;;5.62;2.40;;;12.30;36.40;;;;;;1807570;79;21132;-68
2021/04/05 11:49:49;;;;;;;4.37;2.27;;;12.30;37.30;;;;;;1804798;79;21124;-71
2021/04/05 11:52:35;;;;;;;11.25;2.92;;;12.30;37.80;;;;;;1812695;78;21536;-68
2021/04/05 11:55:09;;;;;;;5.95;2.58;;;12.20;37.70;;;;;;1818489;79;21149;-68
2021/04/05 11:57:52;;;;;;;5.12;2.15;;;12.30;37.20;;;;;;1818972;79;21549;-69
2021/04/05 12:00:31;;;;;;;4.25;2.30;;;12.40;36.80;;;;;;1792670;79;21149;-69
2021/04/05 12:03:10;;;;;;;3.60;2.00;;;12.40;37.40;;;;;;1818298;79;21584;-70
2021/04/05 12:05:47;;;;;;;3.60;2.00;;;12.50;37.10;;;;;;1819377;78;21291;-69
2021/04/05 12:08:21;;;;;;;;;;;12.50;36.80;;;;;;1824436;78;21149;-68
2021/04/05 12:10:54;;;;;;;4.78;2.42;;;12.60;36.70;;;;;;1828753;78;20133;-71
2021/04/05 12:13:32;;;;;;;5.08;2.30;;;12.60;36.10;;;;;;1786810;80;21154;-67
2021/04/05 12:16:04;;;;;;;4.67;2.30;;;12.70;35.80;;;;;;1755908;82;21152;-68
2021/04/05 12:18:33;;;;;;;4.53;2.08;;;12.70;35.80;;;;;;1755688;81;21293;-68
2021/04/05 12:21:10;;;;;;;4.70;2.10;;;12.60;35.90;;;;;;1754486;82;21126;-68
2021/04/05 12:23:40;;;;;;;4.90;2.17;;;12.60;36.10;;;;;;1787820;80;21498;-68
2021/04/05 12:26:10;;;;;;;6.78;2.05;;;12.60;36.70;;;;;;1787114;80;21566;-68
2021/04/05 12:28:41;;;;;;;5.42;2.50;;;12.70;36.50;;;;;;1787521;80;21163;-68
2021/04/05 12:31:12;;;;;;;6.17;2.10;;;12.70;37.40;;;;;;1787500;80;21526;-68
2021/04/05 12:33:42;;;;;;;5.12;2.00;;;12.70;36.90;;;;;;1784563;80;21163;-68
2021/04/05 12:36:12;;;;;;;3.80;2.08;;;12.70;36.80;;;;;;1787158;80;21159;-67
2021/04/05 12:38:44;;;;;;;18.12;2.40;;;12.70;36.30;;;;;;1787422;80;21143;-68
2021/04/05 12:41:12;;;;;;;4.30;2.15;;;12.70;36.60;;;;;;1787174;80;21138;-67
2021/04/05 12:43:42;;;;;;;2.98;1.87;;;12.80;37.30;;;;;;1787336;80;21138;-67
2021/04/05 12:46:16;;;;;;;3.15;1.98;;;12.80;36.60;;;;;;1787318;80;21170;-67
2021/04/05 12:48:46;;;;;;;3.25;1.87;;;12.90;35.80;;;;;;1787525;80;21096;-67
2021/04/05 12:51:19;;;;;;;4.37;2.02;;;12.90;35.90;;;;;;1787418;80;21151;-67
2021/04/05 12:53:49;;;;;;;4.78;1.90;;;12.90;35.50;;;;;;1786834;80;21127;-69
2021/04/05 12:56:21;;;;;;;3.27;2.00;;;12.90;35.40;;;;;;1787164;80;21534;-68
2021/04/05 12:58:54;;;;;;;4.70;2.25;;;13.00;35.80;;;;;;1787133;80;21147;-67
2021/04/05 13:01:51;;;;;;;3.37;1.95;;;12.90;35.00;;;;;;1787104;80;21112;-67
2021/04/05 13:04:26;;;;;;;5.37;2.42;;;12.90;34.90;;;;;;1787024;80;21122;-68
2021/04/05 13:07:11;;;;;;;4.42;2.00;;;12.90;35.60;;;;;;1787000;80;21151;-68
2021/04/05 13:09:44;;;;;;;5.90;2.17;;;13.00;35.80;;;;;;1787343;80;21601;-68
2021/04/05 13:12:19;;;;;;;3.80;2.22;;;13.00;35.60;;;;;;1787206;80;21138;-69
2021/04/05 13:15:00;;;;;;;6.22;2.20;;;13.00;35.10;;;;;;1787023;80;21140;-68
2021/04/05 13:17:34;;;;;;;3.50;2.02;;;13.10;36.40;;;;;;1783657;80;21625;-68
2021/04/05 13:20:13;;;;;;;4.90;2.52;;;13.10;36.40;;;;;;1787126;80;21100;-68
2021/04/05 13:22:53;;;;;;;5.60;2.83;;;13.20;36.30;;;;;;1786684;80;21166;-68
2021/04/05 13:25:31;;;;;;;4.15;2.05;;;13.20;36.50;;;;;;1787520;80;21154;-68
2021/04/05 13:28:02;;;;;;;2.95;1.87;;;13.20;36.30;;;;;;1786975;80;21124;-68
2021/04/05 13:30:33;;;;;;;3.60;1.70;;;13.30;36.20;;;;;;1787021;80;21127;-68
2021/04/05 13:33:05;;;;;;;3.08;1.85;;;13.20;34.60;;;;;;1787102;80;21096;-68
2021/04/05 13:35:33;;;;;;;5.97;1.90;;;13.20;35.50;;;;;;1787680;80;21309;-68
2021/04/05 13:38:09;;;;;;;4.00;2.12;;;13.30;35.40;;;;;;1787040;80;21566;-68
2021/04/05 13:40:40;;;;;;;4.60;1.92;;;13.30;36.00;;;;;;1786497;80;21577;-68
2021/04/05 13:43:15;;;;;;;6.45;2.10;;;13.30;35.80;;;;;;1786999;80;21128;-68